createdAt,value
2022-08-21T00:00:45.940Z,100.00
2022-08-21T00:05:50.994Z,100.00
2022-08-21T00:10:52.678Z,100.00
2022-08-21T00:15:54.187Z,100.00
2022-08-21T00:20:55.991Z,100.00
2022-08-21T00:25:57.535Z,100.00
2022-08-21T00:30:59.378Z,100.00
2022-08-21T00:36:01.219Z,100.00
2022-08-21T00:41:36.342Z,100.00
2022-08-21T00:46:28.464Z,100.00
2022-08-21T00:51:38.732Z,100.00
2022-08-21T00:56:41.146Z,100.00
2022-08-21T01:01:45.156Z,100.00
2022-08-21T01:06:47.170Z,100.00
2022-08-21T01:11:48.902Z,100.00
2022-08-21T01:16:53.663Z,100.00
2022-08-21T01:21:55.981Z,100.00
2022-08-21T01:26:57.689Z,100.00
2022-08-21T01:32:04.909Z,100.00
2022-08-21T01:37:06.943Z,100.00
2022-08-21T01:42:08.924Z,100.00
2022-08-21T01:47:13.118Z,100.00
2022-08-21T01:52:14.801Z,100.00
2022-08-21T01:57:17.061Z,100.00
2022-08-21T02:02:18.665Z,100.00
2022-08-21T02:07:20.279Z,100.00
2022-08-21T02:12:21.789Z,100.00
2022-08-21T02:17:23.704Z,100.00
2022-08-21T02:22:25.285Z,100.00
2022-08-21T02:27:27.632Z,100.00
2022-08-21T02:32:29.326Z,100.00
2022-08-21T02:37:30.869Z,100.00
2022-08-21T02:42:32.435Z,100.00
2022-08-21T02:47:33.986Z,100.00
2022-08-21T02:52:35.740Z,100.00
2022-08-21T02:57:37.510Z,100.00
2022-08-21T03:02:39.219Z,100.00
2022-08-21T03:07:40.798Z,100.00
2022-08-21T03:12:42.463Z,100.00
2022-08-21T03:17:45.885Z,100.00
2022-08-21T03:22:52.798Z,100.00
2022-08-21T03:27:58.395Z,100.00
2022-08-21T03:33:01.922Z,100.00
2022-08-21T03:38:04.145Z,100.00
2022-08-21T03:43:05.702Z,100.00
2022-08-21T03:48:09.241Z,100.00
2022-08-21T03:53:16.953Z,100.00
2022-08-21T03:58:23.015Z,100.00
2022-08-21T04:03:26.175Z,100.00
2022-08-21T04:08:27.993Z,100.00
2022-08-21T04:13:29.601Z,100.00
2022-08-21T04:18:31.352Z,100.00
2022-08-21T04:23:33.216Z,100.00
2022-08-21T04:28:35.280Z,100.00
2022-08-21T04:33:37.020Z,100.00
2022-08-21T04:38:38.831Z,100.00
2022-08-21T04:43:46.079Z,100.00
2022-08-21T04:48:47.741Z,100.00
2022-08-21T04:54:03.502Z,100.00
2022-08-21T04:59:11.658Z,100.00
2022-08-21T05:04:17.694Z,100.00
2022-08-21T05:09:21.135Z,100.00
2022-08-21T05:14:22.704Z,100.00
2022-08-21T05:19:24.427Z,100.00
2022-08-21T05:24:25.989Z,100.00
2022-08-21T05:29:27.664Z,100.00
2022-08-21T05:34:31.338Z,100.00
2022-08-21T05:40:09.600Z,100.00
2022-08-21T05:44:56.304Z,100.00
2022-08-21T05:49:57.857Z,100.00
2022-08-21T05:54:59.390Z,100.00
2022-08-21T06:00:00.908Z,100.00
2022-08-21T06:05:02.999Z,100.00
2022-08-21T06:10:04.821Z,100.00
2022-08-21T06:15:06.865Z,100.00
2022-08-21T06:20:09.123Z,99.27
2022-08-21T06:25:30.726Z,95.90
2022-08-21T06:30:32.606Z,93.31
2022-08-21T06:35:35.357Z,93.03
2022-08-21T06:40:38.945Z,89.10
2022-08-21T06:45:46.231Z,90.43
2022-08-21T06:50:50.944Z,90.56
2022-08-21T06:55:52.675Z,90.26
2022-08-21T07:00:58.723Z,88.46
2022-08-21T07:06:01.779Z,86.96
2022-08-21T07:11:07.922Z,86.72
2022-08-21T07:16:09.887Z,84.85
2022-08-21T07:21:11.671Z,84.83
2022-08-21T07:26:15.409Z,83.24
2022-08-21T07:31:19.018Z,83.33
2022-08-21T07:36:21.309Z,81.41
2022-08-21T07:41:27.280Z,80.67
2022-08-21T07:46:29.107Z,80.14
2022-08-21T07:51:32.919Z,78.54
2022-08-21T07:56:34.999Z,79.54
2022-08-21T08:01:36.630Z,77.82
2022-08-21T08:06:38.245Z,77.85
2022-08-21T08:11:44.592Z,79.10
2022-08-21T08:16:46.264Z,76.56
2022-08-21T08:21:48.062Z,75.24
2022-08-21T08:26:53.790Z,75.02
2022-08-21T08:31:56.003Z,69.35
2022-08-21T08:36:59.509Z,70.01
2022-08-21T08:42:32.666Z,71.54
2022-08-21T08:47:32.172Z,73.23
2022-08-21T08:52:44.640Z,70.33
2022-08-21T08:57:50.076Z,70.13
2022-08-21T09:03:09.228Z,70.91
2022-08-21T09:08:35.505Z,71.51
2022-08-21T09:14:09.704Z,70.69
2022-08-21T09:19:40.242Z,69.91
2022-08-21T09:24:54.720Z,70.04
2022-08-21T09:29:58.452Z,68.33
2022-08-21T09:35:09.089Z,63.82
2022-08-21T09:40:22.203Z,61.07
2022-08-21T09:45:24.310Z,59.03
2022-08-21T09:50:28.080Z,55.50
2022-08-21T09:56:09.611Z,54.03
2022-08-21T10:01:29.545Z,43.31
2022-08-21T10:06:31.472Z,40.47
2022-08-21T10:11:35.280Z,37.54
2022-08-21T10:17:01.356Z,37.56
2022-08-21T10:22:20.446Z,33.98
2022-08-21T10:27:59.513Z,33.43
2022-08-21T10:33:24.593Z,32.67
2022-08-21T10:38:55.396Z,31.54
2022-08-21T10:44:28.062Z,31.50
2022-08-21T10:49:40.911Z,33.78
2022-08-21T10:55:05.006Z,32.52
2022-08-21T11:00:12.411Z,33.70
2022-08-21T11:05:28.966Z,35.65
2022-08-21T11:10:59.940Z,34.59
2022-08-21T11:16:10.128Z,32.73
2022-08-21T11:21:39.685Z,35.62
2022-08-21T11:26:52.414Z,37.23
2022-08-21T11:32:05.828Z,34.85
2022-08-21T11:37:24.307Z,32.85
2022-08-21T11:42:51.904Z,34.11
2022-08-21T11:48:32.206Z,35.72
2022-08-21T11:53:59.812Z,35.74
2022-08-21T11:59:08.075Z,37.08
2022-08-21T12:04:26.667Z,36.09
2022-08-21T12:09:37.806Z,41.40
2022-08-21T12:14:49.021Z,45.58
2022-08-21T12:20:15.564Z,47.78
2022-08-21T12:25:21.927Z,43.60
2022-08-21T12:30:46.282Z,38.87
2022-08-21T12:35:50.573Z,40.26
2022-08-21T12:41:06.199Z,43.14
2022-08-21T12:46:18.182Z,46.90
2022-08-21T12:51:26.839Z,48.27
2022-08-21T12:56:33.941Z,45.55
2022-08-21T13:01:53.349Z,47.09
2022-08-21T13:06:56.365Z,45.08
2022-08-21T13:12:00.032Z,42.92
2022-08-21T13:17:05.241Z,44.96
2022-08-21T13:22:33.184Z,41.11
2022-08-21T13:27:37.274Z,40.71
2022-08-21T13:32:46.548Z,41.50
2022-08-21T13:37:50.818Z,41.32
2022-08-21T13:42:54.085Z,41.86
2022-08-21T13:47:56.229Z,42.48
2022-08-21T13:53:05.140Z,42.75
2022-08-21T13:58:08.226Z,40.99
2022-08-21T14:03:10.783Z,42.47
2022-08-21T14:08:16.591Z,44.28
2022-08-21T14:13:44.469Z,45.64
2022-08-21T14:18:52.793Z,48.27
2022-08-21T14:24:14.542Z,47.01
2022-08-21T14:29:18.725Z,46.21
2022-08-21T14:34:21.804Z,47.16
2022-08-21T14:39:23.526Z,47.18
2022-08-21T14:44:25.342Z,48.16
2022-08-21T14:49:30.580Z,48.34
2022-08-21T14:54:33.745Z,48.86
2022-08-21T14:59:36.903Z,49.73
2022-08-21T15:04:38.533Z,51.16
2022-08-21T15:09:40.116Z,48.64
2022-08-21T15:14:43.114Z,50.11
2022-08-21T15:19:48.373Z,50.65
2022-08-21T15:24:50.285Z,47.58
2022-08-21T15:29:54.218Z,46.44
2022-08-21T15:34:57.298Z,47.50
2022-08-21T15:39:59.318Z,46.74
2022-08-21T15:45:02.029Z,49.81
2022-08-21T15:50:06.650Z,49.99
2022-08-21T15:55:09.909Z,50.19
2022-08-21T16:00:20.988Z,50.76
2022-08-21T16:05:23.958Z,49.97
2022-08-21T16:10:30.094Z,50.42
2022-08-21T16:15:32.790Z,52.92
2022-08-21T16:20:36.782Z,54.34
2022-08-21T16:25:40.061Z,56.39
2022-08-21T16:30:45.315Z,56.74
2022-08-21T16:35:48.122Z,57.73
2022-08-21T16:40:50.117Z,57.16
2022-08-21T16:45:53.872Z,57.09
2022-08-21T16:50:57.245Z,59.68
2022-08-21T16:56:01.557Z,60.48
2022-08-21T17:01:10.413Z,62.71
2022-08-21T17:06:13.677Z,64.52
2022-08-21T17:11:30.686Z,66.28
2022-08-21T17:16:42.731Z,67.61
2022-08-21T17:21:44.722Z,68.16
2022-08-21T17:26:47.586Z,69.57
2022-08-21T17:31:49.335Z,70.45
2022-08-21T17:36:51.137Z,70.86
2022-08-21T17:41:57.923Z,70.35
2022-08-21T17:46:59.930Z,70.94
2022-08-21T17:52:01.502Z,70.30
2022-08-21T17:57:04.816Z,69.44
2022-08-21T18:02:09.912Z,69.46
2022-08-21T18:07:31.862Z,69.76
2022-08-21T18:12:35.272Z,70.74
2022-08-21T18:17:37.262Z,72.41
2022-08-21T18:22:39.292Z,73.90
2022-08-21T18:27:45.694Z,75.57
2022-08-21T18:32:48.297Z,76.67
2022-08-21T18:37:49.958Z,78.77
2022-08-21T18:42:55.791Z,79.41
2022-08-21T18:47:58.861Z,80.64
2022-08-21T18:53:00.587Z,80.84
2022-08-21T18:58:02.843Z,82.52
2022-08-21T19:03:05.903Z,83.43
2022-08-21T19:13:33.606Z,86.24
2022-08-21T19:18:40.621Z,86.82
2022-08-21T19:23:44.340Z,87.65
2022-08-21T19:28:49.873Z,88.51
2022-08-21T19:39:20.985Z,90.89
2022-08-21T19:44:25.667Z,91.07
2022-08-21T19:49:33.281Z,92.02
2022-08-21T19:54:35.117Z,92.56
2022-08-21T19:59:37.395Z,93.37
2022-08-21T20:04:38.955Z,94.27
2022-08-21T20:09:56.910Z,95.06
2022-08-21T20:14:59.296Z,95.32
2022-08-21T20:20:00.972Z,95.48
2022-08-21T20:25:03.369Z,97.13
2022-08-21T20:30:07.360Z,97.87
2022-08-21T20:35:13.667Z,98.59
2022-08-21T20:40:16.515Z,99.75
2022-08-21T20:45:31.763Z,100.00
2022-08-21T20:50:37.207Z,100.00
2022-08-21T20:55:45.130Z,100.00
2022-08-21T21:00:50.237Z,100.00
2022-08-21T21:06:30.321Z,100.00
2022-08-21T21:11:46.211Z,100.00
2022-08-21T21:17:02.172Z,100.00
2022-08-21T21:22:17.491Z,100.00
2022-08-21T21:27:43.937Z,100.00
2022-08-21T21:32:51.111Z,100.00
2022-08-21T21:38:02.111Z,100.00
2022-08-21T21:43:24.667Z,100.00
2022-08-21T21:48:55.736Z,100.00
2022-08-21T21:54:18.999Z,100.00
2022-08-21T21:59:46.586Z,100.00
2022-08-21T22:04:57.426Z,100.00
2022-08-21T22:10:19.618Z,100.00
2022-08-21T22:15:41.539Z,100.00
2022-08-21T22:20:53.301Z,100.00
2022-08-21T22:26:03.491Z,100.00
2022-08-21T22:31:16.112Z,100.00
2022-08-21T22:36:21.260Z,100.00
2022-08-21T22:41:37.727Z,100.00
2022-08-21T22:46:48.300Z,100.00
2022-08-21T22:51:55.217Z,100.00
2022-08-21T22:57:07.144Z,100.00
2022-08-21T23:02:31.726Z,100.00
2022-08-21T23:07:43.528Z,100.00
2022-08-21T23:12:52.264Z,100.00
2022-08-21T23:18:27.047Z,100.00
2022-08-21T23:23:31.273Z,100.00
2022-08-21T23:28:53.386Z,100.00
2022-08-21T23:34:15.759Z,100.00
2022-08-21T23:39:39.464Z,100.00
2022-08-21T23:45:17.863Z,100.00
2022-08-21T23:50:35.678Z,100.00
2022-08-21T23:55:54.647Z,100.00
